Time,TemperatureF,DewpointF,PressureIn,WindDirection,WindDirectionDegrees,WindSpeedMPH,WindSpeedGustMPH,Humidity,HourlyPrecipIn,Conditions,Clouds,dailyrainin,SoftwareType,DateUTC
2013-02-22 00:00:00,12.1,8.4,30.11,SSE,156,0.0,2.0,85,0.00,CLR,CLR,0.00,WeatherDisplay:10.37,2013-02-22 05:00:00,
2013-02-22 00:01:00,12.2,8.6,30.11,SSE,158,0.0,0.0,85,0.00,CLR,,0.00,WeatherDisplay:10.37,2013-02-22 05:01:00,
2013-02-22 00:06:00,12.6,8.9,30.11,SSW,202,0.0,1.1,85,0.00,CLR,,0.00,WeatherDisplay:10.37,2013-02-22 05:06:00,
2013-02-22 00:11:00,12.9,9.3,30.11,SSW,202,0.0,0.0,85,0.00,CLR,,0.00,WeatherDisplay:10.37,2013-02-22 05:11:00,
2013-02-22 00:16:00,13.3,9.6,30.12,ESE,112,0.6,1.1,85,0.00,CLR,,0.00,WeatherDisplay:10.37,2013-02-22 05:16:00,
2013-02-22 00:21:00,13.6,10.0,30.13,SW,225,0.0,0.0,85,0.00,CLR,,0.00,WeatherDisplay:10.37,2013-02-22 05:21:00,
2013-02-22 00:26:00,13.8,10.1,30.14,ESE,112,0.6,1.1,85,0.00,CLR,,0.00,WeatherDisplay:10.37,2013-02-22 05:26:00,
2013-02-22 00:31:00,14.0,10.3,30.14,ESE,112,0.0,0.0,85,0.00,CLR,,0.00,WeatherDisplay:10.37,2013-02-22 05:31:00,
2013-02-22 00:36:00,14.2,10.5,30.13,SE,135,0.0,0.0,85,0.00,CLR,,0.00,WeatherDisplay:10.37,2013-02-22 05:36:00,
2013-02-22 00:41:00,14.7,11.0,30.13,ESE,112,3.1,4.6,85,0.00,CLR,,0.00,WeatherDisplay:10.37,2013-02-22 05:41:00,
2013-02-22 00:46:00,15.4,11.7,30.13,SSE,158,4.3,4.6,85,0.00,CLR,,0.00,WeatherDisplay:10.37,2013-02-22 05:46:00,
2013-02-22 00:51:00,16.2,12.7,30.12,SE,135,5.2,5.8,86,0.00,CLR,,0.00,WeatherDisplay:10.37,2013-02-22 05:51:00,
2013-02-22 00:56:00,16.5,13.1,30.12,SE,135,2.8,4.6,86,0.00,CLR,,0.00,WeatherDisplay:10.37,2013-02-22 05:56:00,
2013-02-22 01:01:00,16.9,13.4,30.12,ESE,112,2.4,4.6,86,0.00,CLR,,0.00,WeatherDisplay:10.37,2013-02-22 06:01:00,
2013-02-22 01:06:00,17.2,13.8,30.12,SE,135,1.5,4.6,86,0.00,CLR,,0.00,WeatherDisplay:10.37,2013-02-22 06:06:00,
2013-02-22 01:11:00,17.2,13.8,30.12,ESE,112,1.5,3.5,86,0.00,CLR,,0.00,WeatherDisplay:10.37,2013-02-22 06:11:00,
2013-02-22 01:16:00,17.6,13.9,30.12,SE,135,4.3,4.6,85,0.00,CLR,,0.00,WeatherDisplay:10.37,2013-02-22 06:16:00,
2013-02-22 01:21:00,17.8,14.0,30.11,SE,135,0.6,2.3,85,0.00,CLR,,0.00,WeatherDisplay:10.37,2013-02-22 06:21:00,
2013-02-22 01:26:00,18.0,13.9,30.11,SE,135,4.3,4.6,84,0.00,CLR,,0.00,WeatherDisplay:10.37,2013-02-22 06:26:00,
2013-02-22 01:31:00,18.1,14.1,30.11,SSE,158,3.1,3.5,84,0.00,CLR,,0.00,WeatherDisplay:10.37,2013-02-22 06:31:00,
2013-02-22 01:36:00,18.3,14.3,30.11,South,180,5.2,5.8,84,0.00,CLR,,0.00,WeatherDisplay:10.37,2013-02-22 06:36:00,
2013-02-22 01:41:00,18.5,14.5,30.11,ESE,112,3.4,3.5,84,0.00,CLR,,0.00,WeatherDisplay:10.37,2013-02-22 06:41:00,
2013-02-22 01:46:00,18.7,14.4,30.11,ESE,112,7.0,7.0,83,0.00,CLR,,0.00,WeatherDisplay:10.37,2013-02-22 06:46:00,
2013-02-22 01:51:00,19.0,14.4,30.11,SE,135,5.2,5.8,82,0.00,CLR,,0.00,WeatherDisplay:10.37,2013-02-22 06:51:00,
2013-02-22 01:56:00,19.0,14.7,30.12,SE,135,4.6,5.8,83,0.00,CLR,,0.00,WeatherDisplay:10.37,2013-02-22 06:56:00,
2013-02-22 02:01:00,19.0,14.4,30.12,SE,135,5.2,5.2,82,0.00,CLR,,0.00,WeatherDisplay:10.37,2013-02-22 07:01:00,
2013-02-22 02:06:00,19.2,14.6,30.12,ESE,112,3.4,6.9,82,0.00,CLR,,0.00,WeatherDisplay:10.37,2013-02-22 07:06:00,
2013-02-22 02:11:00,19.4,14.8,30.13,SSE,158,7.0,7.0,82,0.00,CLR,,0.00,WeatherDisplay:10.37,2013-02-22 07:11:00,
2013-02-22 02:16:00,19.4,14.8,30.13,East,90,1.5,1.5,82,0.00,CLR,,0.00,WeatherDisplay:10.37,2013-02-22 07:16:00,
2013-02-22 02:21:00,19.4,14.8,30.13,SE,135,2.5,2.5,82,0.00,CLR,,0.00,WeatherDisplay:10.37,2013-02-22 07:21:00,
2013-02-22 02:26:00,19.4,14.8,30.12,ESE,112,1.5,2.3,82,0.00,CLR,,0.00,WeatherDisplay:10.37,2013-02-22 07:26:00,
2013-02-22 02:31:00,19.4,14.5,30.12,ESE,112,1.2,4.6,81,0.00,CLR,,0.00,WeatherDisplay:10.37,2013-02-22 07:31:00,
2013-02-22 02:36:00,19.6,14.7,30.13,SE,135,3.4,3.5,81,0.00,CLR,,0.00,WeatherDisplay:10.37,2013-02-22 07:36:00,
2013-02-22 02:41:00,19.6,14.7,30.13,South,180,4.6,4.6,81,0.00,CLR,,0.00,WeatherDisplay:10.37,2013-02-22 07:41:00,
2013-02-22 02:46:00,19.6,14.7,30.13,South,180,1.2,1.2,81,0.00,CLR,,0.00,WeatherDisplay:10.37,2013-02-22 07:46:00,
2013-02-22 02:51:00,19.8,14.9,30.13,SE,135,6.7,6.9,81,0.00,CLR,,0.00,WeatherDisplay:10.37,2013-02-22 07:51:00,
2013-02-22 02:56:00,19.8,14.9,30.13,SSE,158,4.9,4.9,81,0.00,CLR,,0.00,WeatherDisplay:10.37,2013-02-22 07:56:00,
2013-02-22 03:01:00,19.8,14.9,30.14,SW,225,3.1,3.5,81,0.00,CLR,,0.00,WeatherDisplay:10.37,2013-02-22 08:01:00,
2013-02-22 03:06:00,19.6,14.7,30.13,South,180,5.2,5.8,81,0.00,CLR,,0.00,WeatherDisplay:10.37,2013-02-22 08:06:00,
2013-02-22 03:11:00,19.6,14.4,30.13,SSE,158,4.6,8.1,80,0.00,CLR,,0.00,WeatherDisplay:10.37,2013-02-22 08:11:00,
2013-02-22 03:16:00,19.4,14.2,30.13,SSE,158,7.0,7.0,80,0.00,CLR,,0.00,WeatherDisplay:10.37,2013-02-22 08:16:00,
2013-02-22 03:21:00,19.4,14.2,30.13,SSE,158,5.8,6.9,80,0.00,CLR,,0.00,WeatherDisplay:10.37,2013-02-22 08:21:00,
2013-02-22 03:26:00,19.4,14.2,30.12,South,180,8.1,8.1,80,0.00,CLR,,0.00,WeatherDisplay:10.37,2013-02-22 08:26:00,
2013-02-22 03:31:00,19.4,14.2,30.13,South,180,6.7,6.9,80,0.00,CLR,,0.00,WeatherDisplay:10.37,2013-02-22 08:31:00,
2013-02-22 03:36:00,19.4,14.2,30.13,SE,135,3.1,5.8,80,0.00,CLR,,0.00,WeatherDisplay:10.37,2013-02-22 08:36:00,
2013-02-22 03:41:00,19.4,14.2,30.14,SSE,158,8.1,8.1,80,0.00,CLR,,0.00,WeatherDisplay:10.37,2013-02-22 08:41:00,
2013-02-22 03:46:00,19.4,14.2,30.13,ESE,112,4.6,4.6,80,0.00,CLR,,0.00,WeatherDisplay:10.37,2013-02-22 08:46:00,
2013-02-22 03:51:00,19.6,14.4,30.11,ESE,112,6.7,6.9,80,0.00,CLR,,0.00,WeatherDisplay:10.37,2013-02-22 08:51:00,
2013-02-22 03:56:00,19.6,14.4,30.10,SSE,158,9.0,9.2,80,0.00,CLR,,0.00,WeatherDisplay:10.37,2013-02-22 08:56:00,
2013-02-22 04:01:00,19.8,14.6,30.11,SSE,158,5.8,5.8,80,0.00,CLR,,0.00,WeatherDisplay:10.37,2013-02-22 09:01:00,
2013-02-22 04:06:00,19.8,14.6,30.11,SSE,158,4.3,4.6,80,0.00,CLR,,0.00,WeatherDisplay:10.37,2013-02-22 09:06:00,
2013-02-22 04:11:00,19.8,14.6,30.11,ESE,112,3.1,6.9,80,0.00,CLR,,0.00,WeatherDisplay:10.37,2013-02-22 09:11:00,
2013-02-22 04:16:00,19.8,14.3,30.12,SSE,158,6.4,6.9,79,0.00,CLR,,0.00,WeatherDisplay:10.37,2013-02-22 09:16:00,
2013-02-22 04:21:00,19.8,14.3,30.13,ESE,112,3.7,9.2,79,0.00,CLR,,0.00,WeatherDisplay:10.37,2013-02-22 09:21:00,
2013-02-22 04:26:00,19.8,14.3,30.11,ESE,112,6.1,6.9,79,0.00,CLR,,0.00,WeatherDisplay:10.37,2013-02-22 09:26:00,
2013-02-22 04:31:00,19.8,14.3,30.10,East,90,6.4,6.9,79,0.00,CLR,,0.00,WeatherDisplay:10.37,2013-02-22 09:31:00,
2013-02-22 04:36:00,19.8,14.3,30.10,SSE,158,4.9,11.5,79,0.00,CLR,,0.00,WeatherDisplay:10.37,2013-02-22 09:36:00,
2013-02-22 04:41:00,19.8,14.3,30.10,SE,135,6.4,6.9,79,0.00,CLR,,0.00,WeatherDisplay:10.37,2013-02-22 09:41:00,
2013-02-22 04:46:00,19.8,14.3,30.11,SE,135,8.1,8.1,79,0.00,CLR,,0.00,WeatherDisplay:10.37,2013-02-22 09:46:00,
2013-02-22 04:51:00,19.8,14.3,30.10,SW,225,5.5,8.1,79,0.00,CLR,,0.00,WeatherDisplay:10.37,2013-02-22 09:51:00,
2013-02-22 04:56:00,19.8,14.3,30.09,SSW,202,6.7,8.1,79,0.00,CLR,,0.00,WeatherDisplay:10.37,2013-02-22 09:56:00,
2013-02-22 05:01:00,19.8,14.3,30.10,ESE,112,8.4,8.4,79,0.00,CLR,,0.00,WeatherDisplay:10.37,2013-02-22 10:01:00,
2013-02-22 05:06:00,19.8,14.3,30.10,SE,135,7.8,8.1,79,0.00,CLR,,0.00,WeatherDisplay:10.37,2013-02-22 10:06:00,
2013-02-22 05:11:00,19.8,14.3,30.10,South,180,6.1,6.1,79,0.00,CLR,,0.00,WeatherDisplay:10.37,2013-02-22 10:11:00,
2013-02-22 05:16:00,19.8,14.3,30.10,SE,135,3.1,4.6,79,0.00,CLR,,0.00,WeatherDisplay:10.37,2013-02-22 10:16:00,
2013-02-22 05:21:00,19.9,14.5,30.10,SSE,158,6.7,6.9,79,0.00,CLR,,0.00,WeatherDisplay:10.37,2013-02-22 10:21:00,
2013-02-22 05:26:00,19.9,14.5,30.11,SSE,158,4.0,5.8,79,0.00,CLR,,0.00,WeatherDisplay:10.37,2013-02-22 10:26:00,
2013-02-22 05:31:00,20.1,14.7,30.11,SE,135,6.1,6.9,79,0.00,CLR,,0.00,WeatherDisplay:10.37,2013-02-22 10:31:00,
2013-02-22 05:36:00,20.1,14.7,30.11,SE,135,6.1,13.8,79,0.00,CLR,,0.00,WeatherDisplay:10.37,2013-02-22 10:36:00,
2013-02-22 05:41:00,20.1,14.7,30.11,SE,135,8.4,9.2,79,0.00,CLR,,0.00,WeatherDisplay:10.37,2013-02-22 10:41:00,
2013-02-22 05:46:00,20.1,14.7,30.11,SSW,202,8.1,8.1,79,0.00,CLR,,0.00,WeatherDisplay:10.37,2013-02-22 10:46:00,
2013-02-22 05:51:00,20.1,14.7,30.12,SE,135,10.2,13.8,79,0.00,CLR,,0.00,WeatherDisplay:10.37,2013-02-22 10:51:00,
2013-02-22 05:56:00,20.1,14.7,30.12,SSE,158,3.4,6.9,79,0.00,CLR,,0.00,WeatherDisplay:10.37,2013-02-22 10:56:00,
2013-02-22 06:01:00,20.1,14.7,30.13,SE,135,9.0,9.2,79,0.00,CLR,,0.00,WeatherDisplay:10.37,2013-02-22 11:01:00,
2013-02-22 06:06:00,20.1,14.7,30.13,SSW,202,2.8,8.1,79,0.00,CLR,,0.00,WeatherDisplay:10.37,2013-02-22 11:06:00,
2013-02-22 06:11:00,20.3,14.8,30.13,SSE,158,3.1,6.9,79,0.00,CLR,,0.00,WeatherDisplay:10.37,2013-02-22 11:11:00,
2013-02-22 06:16:00,20.3,14.8,30.13,ESE,112,5.2,5.8,79,0.00,CLR,,0.00,WeatherDisplay:10.37,2013-02-22 11:16:00,
2013-02-22 06:21:00,20.3,14.8,30.13,ESE,112,3.4,9.2,79,0.00,CLR,,0.00,WeatherDisplay:10.37,2013-02-22 11:21:00,
2013-02-22 06:26:00,20.5,15.0,30.12,SE,135,8.7,13.8,79,0.00,CLR,,0.00,WeatherDisplay:10.37,2013-02-22 11:26:00,
2013-02-22 06:31:00,20.5,15.0,30.12,SSE,158,4.6,8.1,79,0.00,CLR,,0.00,WeatherDisplay:10.37,2013-02-22 11:31:00,
2013-02-22 06:36:00,20.5,15.0,30.12,SE,135,5.5,5.8,79,0.00,CLR,,0.00,WeatherDisplay:10.37,2013-02-22 11:36:00,
2013-02-22 06:41:00,20.5,15.0,30.11,ESE,112,4.3,4.6,79,0.00,CLR,,0.00,WeatherDisplay:10.37,2013-02-22 11:41:00,
2013-02-22 06:46:00,20.5,15.0,30.11,ESE,112,2.8,5.8,79,0.00,CLR,,0.00,WeatherDisplay:10.37,2013-02-22 11:46:00,
2013-02-22 06:51:00,20.5,15.0,30.11,SE,135,9.3,10.4,79,0.00,CLR,,0.00,WeatherDisplay:10.37,2013-02-22 11:51:00,
2013-02-22 06:56:00,20.5,14.7,30.11,ESE,112,7.0,9.2,78,0.00,CLR,,0.00,WeatherDisplay:10.37,2013-02-22 11:56:00,
2013-02-22 07:01:00,20.5,14.7,30.10,SE,135,7.0,10.4,78,0.00,CLR,,0.00,WeatherDisplay:10.37,2013-02-22 12:01:00,
2013-02-22 07:06:00,20.7,14.9,30.10,SE,135,9.9,9.9,78,0.00,CLR,,0.00,WeatherDisplay:10.37,2013-02-22 12:06:00,
2013-02-22 07:11:00,20.7,14.9,30.09,SE,135,11.4,11.5,78,0.00,CLR,,0.00,WeatherDisplay:10.37,2013-02-22 12:11:00,
2013-02-22 07:16:00,20.8,15.1,30.09,South,180,7.0,11.5,78,0.00,CLR,,0.00,WeatherDisplay:10.37,2013-02-22 12:16:00,
2013-02-22 07:21:00,20.8,15.1,30.10,SE,135,9.6,9.6,78,0.00,CLR,,0.00,WeatherDisplay:10.37,2013-02-22 12:21:00,
2013-02-22 07:26:00,21.0,15.2,30.10,ESE,112,9.0,9.2,78,0.00,CLR,,0.00,WeatherDisplay:10.37,2013-02-22 12:26:00,
2013-02-22 07:31:00,21.0,15.2,30.10,SSE,158,9.0,9.2,78,0.00,CLR,,0.00,WeatherDisplay:10.37,2013-02-22 12:31:00,
2013-02-22 07:36:00,20.8,15.1,30.10,SSE,158,10.2,11.5,78,0.00,CLR,,0.00,WeatherDisplay:10.37,2013-02-22 12:36:00,
2013-02-22 07:41:00,21.0,15.2,30.10,SE,135,6.1,10.4,78,0.00,CLR,,0.00,WeatherDisplay:10.37,2013-02-22 12:41:00,
2013-02-22 07:46:00,21.2,15.4,30.09,SE,135,5.5,12.7,78,0.00,CLR,,0.00,WeatherDisplay:10.37,2013-02-22 12:46:00,
2013-02-22 07:51:00,21.2,15.4,30.08,ESE,112,16.0,16.1,78,0.00,CLR,,0.00,WeatherDisplay:10.37,2013-02-22 12:51:00,
2013-02-22 07:56:00,21.6,15.8,30.07,SE,135,14.8,15.0,78,0.00,CLR,,0.00,WeatherDisplay:10.37,2013-02-22 12:56:00,
2013-02-22 08:01:00,21.7,15.9,30.07,SSE,158,12.9,12.9,78,0.00,CLR,,0.00,WeatherDisplay:10.37,2013-02-22 13:01:00,
2013-02-22 08:06:00,21.9,16.1,30.07,SE,135,8.1,8.1,78,0.00,CLR,,0.00,WeatherDisplay:10.37,2013-02-22 13:06:00,
2013-02-22 08:11:00,22.1,16.3,30.06,ESE,112,9.0,11.5,78,0.00,CLR,,0.00,WeatherDisplay:10.37,2013-02-22 13:11:00,
2013-02-22 08:16:00,22.3,16.5,30.06,ENE,68,7.6,9.2,78,0.00,CLR,,0.00,WeatherDisplay:10.37,2013-02-22 13:16:00,
2013-02-22 08:21:00,22.5,16.3,30.06,SW,225,17.5,17.5,77,0.00,CLR,,0.00,WeatherDisplay:10.37,2013-02-22 13:21:00,
2013-02-22 08:26:00,22.6,16.5,30.05,East,90,15.7,19.6,77,0.00,CLR,,0.00,WeatherDisplay:10.37,2013-02-22 13:26:00,
2013-02-22 08:31:00,22.6,16.5,30.06,SE,135,14.2,14.2,77,0.00,CLR,,0.00,WeatherDisplay:10.37,2013-02-22 13:31:00,
2013-02-22 08:36:00,22.6,16.5,30.06,SSE,158,12.9,12.9,77,0.00,CLR,,0.00,WeatherDisplay:10.37,2013-02-22 13:36:00,
2013-02-22 08:41:00,22.8,16.7,30.05,ESE,112,10.2,10.4,77,0.00,CLR,,0.00,WeatherDisplay:10.37,2013-02-22 13:41:00,
2013-02-22 08:46:00,22.6,16.5,30.05,ESE,112,13.9,13.9,77,0.00,CLR,,0.00,WeatherDisplay:10.37,2013-02-22 13:46:00,
2013-02-22 08:51:00,22.6,16.5,30.05,SSE,158,8.1,8.1,77,0.00,CLR,,0.00,WeatherDisplay:10.37,2013-02-22 13:51:00,
2013-02-22 08:56:00,22.6,16.5,30.06,SSE,158,12.9,12.9,77,0.00,CLR,,0.00,WeatherDisplay:10.37,2013-02-22 13:56:00,
2013-02-22 09:01:00,22.8,17.0,30.06,SE,135,7.0,7.0,78,0.00,CLR,,0.00,WeatherDisplay:10.37,2013-02-22 14:01:00,
2013-02-22 09:06:00,23.0,16.9,30.06,SE,135,11.4,17.3,77,0.00,CLR,,0.00,WeatherDisplay:10.37,2013-02-22 14:06:00,
2013-02-22 09:11:00,23.0,16.9,30.06,SSE,158,6.7,8.1,77,0.00,CLR,,0.00,WeatherDisplay:10.37,2013-02-22 14:11:00,
2013-02-22 09:16:00,23.2,17.0,30.06,SE,135,8.4,11.5,77,0.00,CLR,,0.00,WeatherDisplay:10.37,2013-02-22 14:16:00,
2013-02-22 09:21:00,23.4,17.2,30.05,SE,135,9.9,10.4,77,0.00,CLR,,0.00,WeatherDisplay:10.37,2013-02-22 14:21:00,
2013-02-22 09:26:00,23.4,17.2,30.05,ESE,112,14.5,15.0,77,0.00,CLR,,0.00,WeatherDisplay:10.37,2013-02-22 14:26:00,
2013-02-22 09:31:00,23.5,17.4,30.05,SSE,158,3.7,6.9,77,0.00,CLR,,0.00,WeatherDisplay:10.37,2013-02-22 14:31:00,
2013-02-22 09:36:00,23.5,17.4,30.04,SE,135,14.8,15.0,77,0.00,CLR,,0.00,WeatherDisplay:10.37,2013-02-22 14:36:00,
2013-02-22 09:41:00,23.7,17.6,30.04,SE,135,7.6,8.1,77,0.00,CLR,,0.00,WeatherDisplay:10.37,2013-02-22 14:41:00,
2013-02-22 09:46:00,23.9,17.7,30.04,ESE,112,6.1,17.3,77,0.00,CLR,,0.00,WeatherDisplay:10.37,2013-02-22 14:46:00,
2013-02-22 09:51:00,24.1,17.9,30.04,SSE,158,6.1,11.5,77,0.00,CLR,,0.00,WeatherDisplay:10.37,2013-02-22 14:51:00,
2013-02-22 09:56:00,24.3,18.1,30.04,SSW,202,10.8,11.5,77,0.00,CLR,,0.00,WeatherDisplay:10.37,2013-02-22 14:56:00,
2013-02-22 10:01:00,24.4,18.3,30.04,East,90,12.9,12.9,77,0.00,CLR,,0.00,WeatherDisplay:10.37,2013-02-22 15:01:00,
2013-02-22 10:06:00,24.4,18.3,30.03,South,180,7.0,8.1,77,0.00,CLR,,0.00,WeatherDisplay:10.37,2013-02-22 15:06:00,
2013-02-22 10:11:00,24.6,18.4,30.03,SSE,158,12.3,12.7,77,0.00,CLR,,0.00,WeatherDisplay:10.37,2013-02-22 15:11:00,
2013-02-22 10:16:00,24.8,18.6,30.03,SE,135,10.2,10.4,77,0.00,CLR,,0.00,WeatherDisplay:10.37,2013-02-22 15:16:00,
2013-02-22 10:21:00,24.8,18.6,30.03,SE,135,10.2,10.4,77,0.00,CLR,,0.00,WeatherDisplay:10.37,2013-02-22 15:21:00,
2013-02-22 10:26:00,24.8,18.6,30.04,SE,135,9.3,11.5,77,0.00,CLR,,0.00,WeatherDisplay:10.37,2013-02-22 15:26:00,
2013-02-22 10:31:00,24.8,18.6,30.04,SW,225,9.3,9.3,77,0.00,CLR,,0.00,WeatherDisplay:10.37,2013-02-22 15:31:00,
2013-02-22 10:36:00,25.2,19.0,30.05,SSE,158,6.7,6.9,77,0.00,CLR,,0.00,WeatherDisplay:10.37,2013-02-22 15:36:00,
2013-02-22 10:41:00,25.2,18.7,30.05,SW,225,12.3,12.7,76,0.00,CLR,,0.00,WeatherDisplay:10.37,2013-02-22 15:41:00,
2013-02-22 10:46:00,25.0,18.5,30.05,SSW,202,12.9,12.9,76,0.00,CLR,,0.00,WeatherDisplay:10.37,2013-02-22 15:46:00,
2013-02-22 10:51:00,25.0,18.8,30.05,South,180,14.5,15.0,77,0.00,CLR,,0.00,WeatherDisplay:10.37,2013-02-22 15:51:00,
2013-02-22 10:56:00,25.0,18.8,30.05,SE,135,11.1,11.5,77,0.00,CLR,,0.00,WeatherDisplay:10.37,2013-02-22 15:56:00,
2013-02-22 11:01:00,25.0,18.8,30.05,SE,135,12.9,12.9,77,0.00,CLR,,0.00,WeatherDisplay:10.37,2013-02-22 16:01:00,
2013-02-22 11:06:00,25.0,19.1,30.05,SE,135,7.8,11.5,78,0.00,CLR,,0.00,WeatherDisplay:10.37,2013-02-22 16:06:00,
2013-02-22 11:11:00,25.0,19.4,30.05,SE,135,11.1,15.0,79,0.00,CLR,,0.00,WeatherDisplay:10.37,2013-02-22 16:11:00,
2013-02-22 11:16:00,24.8,19.2,30.05,SSE,158,14.2,14.2,79,0.00,CLR,,0.00,WeatherDisplay:10.37,2013-02-22 16:16:00,
2013-02-22 11:22:00,24.6,19.6,30.05,ESE,112,14.8,15.0,81,0.00,CLR,,0.00,WeatherDisplay:10.37,2013-02-22 16:22:00,
2013-02-22 11:27:00,24.6,19.3,30.05,SSE,158,14.5,15.0,80,0.00,CLR,,0.00,WeatherDisplay:10.37,2013-02-22 16:27:00,
2013-02-22 11:32:00,24.6,19.6,30.04,SSW,202,15.7,16.1,81,0.00,CLR,,0.00,WeatherDisplay:10.37,2013-02-22 16:32:00,
2013-02-22 11:37:00,24.4,19.4,30.05,South,180,12.9,12.9,81,0.00,CLR,,0.00,WeatherDisplay:10.37,2013-02-22 16:37:00,
2013-02-22 11:42:00,24.4,19.4,30.04,SE,135,9.9,17.3,81,0.00,CLR,,0.00,WeatherDisplay:10.37,2013-02-22 16:42:00,
2013-02-22 11:47:00,24.3,19.6,30.05,SSE,158,17.8,17.8,82,0.00,CLR,,0.00,WeatherDisplay:10.37,2013-02-22 16:47:00,
2013-02-22 11:52:00,24.3,19.6,30.04,SE,135,12.3,12.7,82,0.00,CLR,,0.00,WeatherDisplay:10.37,2013-02-22 16:52:00,
2013-02-22 11:57:00,24.1,19.7,30.04,SSE,158,16.6,16.6,83,0.00,CLR,,0.00,WeatherDisplay:10.37,2013-02-22 16:57:00,
2013-02-22 12:02:00,24.1,19.9,30.05,South,180,11.1,12.7,84,0.00,CLR,,0.00,WeatherDisplay:10.37,2013-02-22 17:02:00,
2013-02-22 12:07:00,24.1,19.9,30.04,SE,135,13.6,13.8,84,0.00,CLR,,0.00,WeatherDisplay:10.37,2013-02-22 17:07:00,
2013-02-22 12:12:00,24.1,19.9,30.04,ESE,112,12.9,12.9,84,0.00,CLR,,0.00,WeatherDisplay:10.37,2013-02-22 17:12:00,
2013-02-22 12:17:00,24.1,20.2,30.04,SE,135,15.1,15.1,85,0.00,CLR,,0.00,WeatherDisplay:10.37,2013-02-22 17:17:00,
2013-02-22 12:22:00,23.9,20.0,30.04,SE,135,8.4,15.0,85,0.00,CLR,,0.00,WeatherDisplay:10.37,2013-02-22 17:22:00,
2013-02-22 12:27:00,23.7,19.9,30.04,SE,135,16.0,16.1,85,0.00,CLR,,0.00,WeatherDisplay:10.37,2013-02-22 17:27:00,
2013-02-22 12:32:00,23.7,19.9,30.03,SE,135,9.6,13.8,85,0.00,CLR,,0.00,WeatherDisplay:10.37,2013-02-22 17:32:00,
2013-02-22 12:37:00,23.5,19.7,30.03,SE,135,16.0,16.1,85,0.00,CLR,,0.00,WeatherDisplay:10.37,2013-02-22 17:37:00,
2013-02-22 12:42:00,23.5,20.0,30.03,SSW,202,14.2,16.1,86,0.00,CLR,,0.00,WeatherDisplay:10.37,2013-02-22 17:42:00,
2013-02-22 12:47:00,23.7,20.1,30.03,SE,135,12.9,12.9,86,0.00,CLR,,0.00,WeatherDisplay:10.37,2013-02-22 17:47:00,
2013-02-22 12:52:00,23.9,20.6,30.02,SSE,158,20.9,20.9,87,0.00,CLR,,0.00,WeatherDisplay:10.37,2013-02-22 17:52:00,
2013-02-22 12:57:00,23.7,20.4,30.02,SE,135,16.3,16.3,87,0.00,CLR,,0.00,WeatherDisplay:10.37,2013-02-22 17:57:00,
2013-02-22 13:02:00,23.7,20.7,30.02,SE,135,14.5,15.0,88,0.00,CLR,,0.00,WeatherDisplay:10.37,2013-02-22 18:02:00,
2013-02-22 13:07:00,23.5,20.5,30.02,SE,135,13.6,13.8,88,0.00,CLR,,0.00,WeatherDisplay:10.37,2013-02-22 18:07:00,
2013-02-22 13:12:00,23.5,20.5,30.02,SSE,158,7.0,9.2,88,0.00,CLR,,0.00,WeatherDisplay:10.37,2013-02-22 18:12:00,
2013-02-22 13:17:00,23.7,20.7,30.02,SE,135,9.0,12.7,88,0.00,CLR,,0.00,WeatherDisplay:10.37,2013-02-22 18:17:00,
2013-02-22 13:22:00,23.7,20.7,30.01,South,180,14.8,15.0,88,0.00,CLR,,0.00,WeatherDisplay:10.37,2013-02-22 18:22:00,
2013-02-22 13:27:00,23.7,20.7,30.01,SSE,158,7.6,10.4,88,0.00,CLR,,0.00,WeatherDisplay:10.37,2013-02-22 18:27:00,
2013-02-22 13:32:00,23.5,20.5,30.01,SSE,158,10.2,13.8,88,0.00,CLR,,0.00,WeatherDisplay:10.37,2013-02-22 18:32:00,
2013-02-22 13:37:00,23.5,20.5,30.01,SE,135,10.2,10.4,88,0.00,CLR,,0.00,WeatherDisplay:10.37,2013-02-22 18:37:00,
2013-02-22 13:42:00,23.7,21.0,30.01,SSW,202,9.0,15.0,89,0.00,CLR,,0.00,WeatherDisplay:10.37,2013-02-22 18:42:00,
2013-02-22 13:47:00,23.7,20.7,30.00,SSE,158,12.9,13.8,88,0.00,CLR,,0.00,WeatherDisplay:10.37,2013-02-22 18:47:00,
2013-02-22 13:52:00,23.7,20.7,30.01,SE,135,13.6,15.0,88,0.00,CLR,,0.00,WeatherDisplay:10.37,2013-02-22 18:52:00,
2013-02-22 13:57:00,23.7,20.7,30.00,SSW,202,11.1,11.5,88,0.00,CLR,,0.00,WeatherDisplay:10.37,2013-02-22 18:57:00,
2013-02-22 14:02:00,23.9,21.1,30.00,South,180,19.7,19.7,89,0.00,CLR,,0.00,WeatherDisplay:10.37,2013-02-22 19:02:00,
2013-02-22 14:07:00,23.7,21.0,30.00,SE,135,12.3,12.7,89,0.00,CLR,,0.00,WeatherDisplay:10.37,2013-02-22 19:07:00,
2013-02-22 14:12:00,23.9,21.1,30.01,SE,135,9.9,11.5,89,0.00,CLR,,0.00,WeatherDisplay:10.37,2013-02-22 19:12:00,
2013-02-22 14:17:00,23.9,21.1,30.01,SSW,202,10.5,10.5,89,0.00,CLR,,0.00,WeatherDisplay:10.37,2013-02-22 19:17:00,
2013-02-22 14:22:00,23.9,21.1,30.00,East,90,2.5,6.9,89,0.00,CLR,,0.00,WeatherDisplay:10.37,2013-02-22 19:22:00,
2013-02-22 14:27:00,24.1,21.3,30.00,SSE,158,13.6,13.8,89,0.00,CLR,,0.00,WeatherDisplay:10.37,2013-02-22 19:27:00,
2013-02-22 14:32:00,24.1,21.3,30.00,SE,135,6.1,13.8,89,0.00,CLR,,0.00,WeatherDisplay:10.37,2013-02-22 19:32:00,
2013-02-22 14:37:00,24.1,21.3,30.00,ESE,112,10.2,10.4,89,0.00,CLR,,0.00,WeatherDisplay:10.37,2013-02-22 19:37:00,
2013-02-22 14:42:00,24.1,21.3,30.00,South,180,8.1,8.1,89,0.00,CLR,,0.00,WeatherDisplay:10.37,2013-02-22 19:42:00,
2013-02-22 14:47:00,24.1,21.3,30.01,SSE,158,10.5,10.5,89,0.00,CLR,,0.00,WeatherDisplay:10.37,2013-02-22 19:47:00,
2013-02-22 14:52:00,24.1,21.3,30.00,ESE,112,10.2,10.4,89,0.00,CLR,,0.00,WeatherDisplay:10.37,2013-02-22 19:52:00,
2013-02-22 14:57:00,23.9,21.4,30.00,SE,135,9.9,12.7,90,0.00,CLR,,0.00,WeatherDisplay:10.37,2013-02-22 19:57:00,
2013-02-22 15:02:00,23.9,21.4,30.00,SE,135,12.6,13.8,90,0.00,CLR,,0.00,WeatherDisplay:10.37,2013-02-22 20:02:00,
2013-02-22 15:07:00,23.9,21.4,30.00,ESE,112,9.6,9.6,90,0.00,CLR,,0.00,WeatherDisplay:10.37,2013-02-22 20:07:00,
2013-02-22 15:12:00,23.9,21.4,30.00,SE,135,9.9,13.8,90,0.00,CLR,,0.00,WeatherDisplay:10.37,2013-02-22 20:12:00,
2013-02-22 15:17:00,24.1,21.6,30.00,SSE,158,8.1,9.2,90,0.00,CLR,,0.00,WeatherDisplay:10.37,2013-02-22 20:17:00,
2013-02-22 15:22:00,24.1,21.6,30.00,SSE,158,9.3,9.3,90,0.00,CLR,,0.00,WeatherDisplay:10.37,2013-02-22 20:22:00,
2013-02-22 15:27:00,24.1,21.6,30.00,ESE,112,8.7,10.4,90,0.00,CLR,,0.00,WeatherDisplay:10.37,2013-02-22 20:27:00,
2013-02-22 15:32:00,24.4,21.9,29.99,SE,135,7.6,9.2,90,0.00,CLR,,0.00,WeatherDisplay:10.37,2013-02-22 20:32:00,
2013-02-22 15:37:00,24.4,21.9,30.00,South,180,12.3,12.7,90,0.00,CLR,,0.00,WeatherDisplay:10.37,2013-02-22 20:37:00,
2013-02-22 15:42:00,24.6,22.1,30.00,SSW,202,8.4,9.2,90,0.00,CLR,,0.00,WeatherDisplay:10.37,2013-02-22 20:42:00,
2013-02-22 15:47:00,24.6,22.1,29.99,SSE,158,11.1,11.5,90,0.00,CLR,,0.00,WeatherDisplay:10.37,2013-02-22 20:47:00,
2013-02-22 15:52:00,24.6,22.1,29.99,SSE,158,13.3,13.8,90,0.00,CLR,,0.00,WeatherDisplay:10.37,2013-02-22 20:52:00,
2013-02-22 15:57:00,24.6,22.1,29.99,SE,135,7.8,10.4,90,0.00,CLR,,0.00,WeatherDisplay:10.37,2013-02-22 20:57:00,
2013-02-22 16:02:00,24.4,21.9,29.99,SE,135,7.0,9.2,90,0.00,CLR,,0.00,WeatherDisplay:10.37,2013-02-22 21:02:00,
2013-02-22 16:07:00,24.6,22.1,29.99,SSE,158,9.9,10.4,90,0.00,CLR,,0.00,WeatherDisplay:10.37,2013-02-22 21:07:00,
2013-02-22 16:12:00,24.4,21.9,29.99,SSE,158,6.7,9.2,90,0.00,CLR,,0.00,WeatherDisplay:10.37,2013-02-22 21:12:00,
2013-02-22 16:17:00,24.4,21.9,30.00,SE,135,7.6,9.2,90,0.00,CLR,,0.00,WeatherDisplay:10.37,2013-02-22 21:17:00,
2013-02-22 16:22:00,24.4,21.9,29.99,East,90,7.8,8.1,90,0.00,CLR,,0.00,WeatherDisplay:10.37,2013-02-22 21:22:00,
2013-02-22 16:27:00,24.4,21.9,29.99,SE,135,9.0,9.2,90,0.00,CLR,,0.00,WeatherDisplay:10.37,2013-02-22 21:27:00,
2013-02-22 16:32:00,24.3,21.8,30.00,West,270,9.0,11.5,90,0.00,CLR,,0.00,WeatherDisplay:10.37,2013-02-22 21:32:00,
2013-02-22 16:37:00,24.4,21.9,29.99,SE,135,12.0,12.0,90,0.00,CLR,,0.00,WeatherDisplay:10.37,2013-02-22 21:37:00,
2013-02-22 16:42:00,24.4,21.9,29.99,ESE,112,7.0,12.7,90,0.00,CLR,,0.00,WeatherDisplay:10.37,2013-02-22 21:42:00,
2013-02-22 16:47:00,24.4,21.9,30.00,SE,135,9.0,10.4,90,0.00,CLR,,0.00,WeatherDisplay:10.37,2013-02-22 21:47:00,
2013-02-22 16:52:00,24.4,21.9,30.00,SSE,158,8.1,9.2,90,0.00,CLR,,0.00,WeatherDisplay:10.37,2013-02-22 21:52:00,
2013-02-22 16:57:00,24.4,21.9,29.99,ESE,112,9.3,13.8,90,0.00,CLR,,0.00,WeatherDisplay:10.37,2013-02-22 21:57:00,
2013-02-22 17:02:00,24.6,22.1,29.99,ESE,112,5.8,6.9,90,0.00,CLR,,0.00,WeatherDisplay:10.37,2013-02-22 22:02:00,
2013-02-22 17:07:00,24.4,21.9,29.98,SE,135,6.4,13.8,90,0.00,CLR,,0.00,WeatherDisplay:10.37,2013-02-22 22:07:00,
2013-02-22 17:12:00,24.4,21.9,29.98,SE,135,12.9,12.9,90,0.00,CLR,,0.00,WeatherDisplay:10.37,2013-02-22 22:12:00,
2013-02-22 17:17:00,24.4,21.9,29.98,ESE,112,7.0,7.0,90,0.00,CLR,,0.00,WeatherDisplay:10.37,2013-02-22 22:17:00,
2013-02-22 17:22:00,24.6,22.1,29.98,SE,135,5.5,10.4,90,0.00,CLR,,0.00,WeatherDisplay:10.37,2013-02-22 22:22:00,
2013-02-22 17:27:00,24.6,22.1,29.98,ESE,112,9.6,9.6,90,0.00,CLR,,0.00,WeatherDisplay:10.37,2013-02-22 22:27:00,
2013-02-22 17:32:00,24.6,22.1,29.99,SE,135,5.2,5.8,90,0.00,CLR,,0.00,WeatherDisplay:10.37,2013-02-22 22:32:00,
2013-02-22 17:37:00,24.6,22.1,29.98,SSE,158,7.0,7.0,90,0.00,CLR,,0.00,WeatherDisplay:10.37,2013-02-22 22:37:00,
2013-02-22 17:42:00,24.6,22.1,29.99,SE,135,8.1,9.2,90,0.00,CLR,,0.00,WeatherDisplay:10.37,2013-02-22 22:42:00,
2013-02-22 17:47:00,24.6,22.4,29.98,SSE,158,12.3,12.7,91,0.00,CLR,,0.00,WeatherDisplay:10.37,2013-02-22 22:47:00,
2013-02-22 17:52:00,24.6,22.4,29.98,ESE,112,6.1,6.9,91,0.00,CLR,,0.00,WeatherDisplay:10.37,2013-02-22 22:52:00,
2013-02-22 17:57:00,24.6,22.4,29.99,South,180,8.1,10.4,91,0.00,CLR,,0.00,WeatherDisplay:10.37,2013-02-22 22:57:00,
2013-02-22 18:02:00,24.6,22.4,29.99,SE,135,5.2,12.7,91,0.00,CLR,,0.00,WeatherDisplay:10.37,2013-02-22 23:02:00,
2013-02-22 18:07:00,24.6,22.4,29.99,SE,135,9.9,11.5,91,0.00,CLR,,0.00,WeatherDisplay:10.37,2013-02-22 23:07:00,
2013-02-22 18:12:00,24.6,22.4,29.99,SE,135,4.6,8.1,91,0.00,CLR,,0.00,WeatherDisplay:10.37,2013-02-22 23:12:00,
2013-02-22 18:17:00,24.6,22.4,29.99,SE,135,6.1,6.1,91,0.00,CLR,,0.00,WeatherDisplay:10.37,2013-02-22 23:17:00,
2013-02-22 18:22:00,24.8,22.5,29.99,SSE,158,8.1,8.1,91,0.00,CLR,,0.00,WeatherDisplay:10.37,2013-02-22 23:22:00,
2013-02-22 18:27:00,24.8,22.5,29.99,South,180,6.1,9.2,91,0.00,CLR,,0.00,WeatherDisplay:10.37,2013-02-22 23:27:00,
2013-02-22 18:32:00,24.6,22.4,29.99,WSW,248,6.1,9.2,91,0.00,CLR,,0.00,WeatherDisplay:10.37,2013-02-22 23:32:00,
2013-02-22 18:37:00,24.8,22.5,29.99,ESE,112,10.2,10.2,91,0.00,CLR,,0.00,WeatherDisplay:10.37,2013-02-22 23:37:00,
2013-02-22 18:42:00,24.8,22.5,29.99,SE,135,8.1,8.1,91,0.00,CLR,,0.00,WeatherDisplay:10.37,2013-02-22 23:42:00,
2013-02-22 18:47:00,24.8,22.5,29.98,SSW,202,5.2,6.9,91,0.00,CLR,,0.00,WeatherDisplay:10.37,2013-02-22 23:47:00,
2013-02-22 18:52:00,24.8,22.5,29.98,SSE,158,4.9,6.9,91,0.00,CLR,,0.00,WeatherDisplay:10.37,2013-02-22 23:52:00,
2013-02-22 18:57:00,24.8,22.5,29.98,SSE,158,5.5,5.8,91,0.00,CLR,,0.00,WeatherDisplay:10.37,2013-02-22 23:57:00,
2013-02-22 19:02:00,24.8,22.5,29.98,SE,135,9.0,9.0,91,0.00,CLR,,0.00,WeatherDisplay:10.37,2013-02-23 00:02:00,
2013-02-22 19:07:00,25.0,22.7,29.98,SSE,158,6.7,10.4,91,0.00,CLR,,0.00,WeatherDisplay:10.37,2013-02-23 00:07:00,
2013-02-22 19:12:00,25.0,22.7,29.97,SE,135,6.7,6.9,91,0.00,CLR,,0.00,WeatherDisplay:10.37,2013-02-23 00:12:00,
2013-02-22 19:17:00,24.8,22.5,29.98,SE,135,4.3,6.9,91,0.00,CLR,,0.00,WeatherDisplay:10.37,2013-02-23 00:17:00,
2013-02-22 19:22:00,24.8,22.5,29.98,ESE,112,2.1,2.3,91,0.00,CLR,,0.00,WeatherDisplay:10.37,2013-02-23 00:22:00,
2013-02-22 19:27:00,25.0,22.7,29.98,SE,135,8.4,8.4,91,0.00,CLR,,0.00,WeatherDisplay:10.37,2013-02-23 00:27:00,
2013-02-22 19:32:00,25.0,22.7,29.98,SSE,158,6.4,9.2,91,0.00,CLR,,0.00,WeatherDisplay:10.37,2013-02-23 00:32:00,
2013-02-22 19:37:00,25.0,23.0,29.98,SE,135,4.3,5.8,92,0.00,CLR,,0.00,WeatherDisplay:10.37,2013-02-23 00:37:00,
2013-02-22 19:42:00,25.0,23.0,29.97,SE,135,8.1,8.1,92,0.00,CLR,,0.00,WeatherDisplay:10.37,2013-02-23 00:42:00,
2013-02-22 19:47:00,25.0,23.0,29.97,SE,135,3.7,5.8,92,0.00,CLR,,0.00,WeatherDisplay:10.37,2013-02-23 00:47:00,
2013-02-22 19:52:00,25.0,23.0,29.97,SE,135,7.8,9.2,92,0.00,CLR,,0.00,WeatherDisplay:10.37,2013-02-23 00:52:00,
2013-02-22 19:57:00,25.0,22.7,29.97,SE,135,7.8,9.2,91,0.00,CLR,,0.00,WeatherDisplay:10.37,2013-02-23 00:57:00,
2013-02-22 20:02:00,25.0,22.7,29.97,South,180,7.0,7.0,91,0.00,CLR,,0.00,WeatherDisplay:10.37,2013-02-23 01:02:00,
2013-02-22 20:07:00,25.0,22.7,29.97,SSE,158,9.3,9.3,91,0.00,CLR,,0.00,WeatherDisplay:10.37,2013-02-23 01:07:00,
2013-02-22 20:12:00,25.0,22.7,29.98,ESE,112,5.2,5.2,91,0.00,CLR,,0.00,WeatherDisplay:10.37,2013-02-23 01:12:00,
2013-02-22 20:17:00,25.0,22.7,29.98,ESE,112,5.8,8.1,91,0.00,CLR,,0.00,WeatherDisplay:10.37,2013-02-23 01:17:00,
2013-02-22 20:22:00,25.0,22.7,29.98,SE,135,4.0,11.5,91,0.00,CLR,,0.00,WeatherDisplay:10.37,2013-02-23 01:22:00,
2013-02-22 20:27:00,25.0,22.7,29.98,SSE,158,7.6,9.2,91,0.00,CLR,,0.00,WeatherDisplay:10.37,2013-02-23 01:27:00,
2013-02-22 20:32:00,25.0,22.7,29.97,SE,135,4.3,9.2,91,0.00,CLR,,0.00,WeatherDisplay:10.37,2013-02-23 01:32:00,
2013-02-22 20:37:00,25.0,22.7,29.97,SE,135,3.1,3.5,91,0.00,CLR,,0.00,WeatherDisplay:10.37,2013-02-23 01:37:00,
2013-02-22 20:42:00,25.0,22.7,29.98,SE,135,5.2,5.8,91,0.00,CLR,,0.00,WeatherDisplay:10.37,2013-02-23 01:42:00,
2013-02-22 20:47:00,25.0,22.7,29.98,SE,135,6.4,6.4,91,0.00,CLR,,0.00,WeatherDisplay:10.37,2013-02-23 01:47:00,
2013-02-22 20:52:00,25.2,22.9,29.98,SSE,158,5.8,6.9,91,0.00,CLR,,0.00,WeatherDisplay:10.37,2013-02-23 01:52:00,
2013-02-22 20:57:00,25.2,22.9,29.98,SSE,158,4.0,9.2,91,0.00,CLR,,0.00,WeatherDisplay:10.37,2013-02-23 01:57:00,
2013-02-22 21:02:00,25.2,22.9,29.98,SE,135,8.1,8.1,91,0.00,CLR,,0.00,WeatherDisplay:10.37,2013-02-23 02:02:00,
2013-02-22 21:07:00,25.2,22.9,29.98,ESE,112,3.4,8.1,91,0.00,CLR,,0.00,WeatherDisplay:10.37,2013-02-23 02:07:00,
2013-02-22 21:12:00,25.2,22.9,29.98,SSE,158,6.4,6.9,91,0.00,CLR,,0.00,WeatherDisplay:10.37,2013-02-23 02:12:00,
2013-02-22 21:17:00,25.3,23.1,29.98,South,180,5.2,6.9,91,0.00,CLR,,0.00,WeatherDisplay:10.37,2013-02-23 02:17:00,
2013-02-22 21:22:00,25.3,23.1,29.98,SE,135,9.3,9.3,91,0.00,CLR,,0.00,WeatherDisplay:10.37,2013-02-23 02:22:00,
2013-02-22 21:27:00,25.3,23.1,29.98,SE,135,5.2,6.9,91,0.00,CLR,,0.00,WeatherDisplay:10.37,2013-02-23 02:27:00,
2013-02-22 21:32:00,25.5,23.3,29.99,SE,135,10.8,10.8,91,0.00,CLR,,0.00,WeatherDisplay:10.37,2013-02-23 02:32:00,
2013-02-22 21:37:00,25.3,23.1,29.98,ESE,112,3.4,6.9,91,0.00,CLR,,0.00,WeatherDisplay:10.37,2013-02-23 02:37:00,
2013-02-22 21:42:00,25.3,23.1,29.98,South,180,7.0,7.0,91,0.00,CLR,,0.00,WeatherDisplay:10.37,2013-02-23 02:42:00,
2013-02-22 21:47:00,25.3,23.1,29.98,ESE,112,5.2,9.2,91,0.00,CLR,,0.00,WeatherDisplay:10.37,2013-02-23 02:47:00,
2013-02-22 21:52:00,25.3,23.1,29.98,SE,135,6.4,9.2,91,0.00,CLR,,0.00,WeatherDisplay:10.37,2013-02-23 02:52:00,
2013-02-22 21:57:00,25.3,23.1,29.97,SSE,158,6.1,6.1,91,0.00,CLR,,0.00,WeatherDisplay:10.37,2013-02-23 02:57:00,
2013-02-22 22:02:00,25.3,23.1,29.98,SE,135,5.2,5.8,91,0.00,CLR,,0.00,WeatherDisplay:10.37,2013-02-23 03:02:00,
2013-02-22 22:07:00,25.3,23.1,29.97,SE,135,4.0,4.6,91,0.00,CLR,,0.00,WeatherDisplay:10.37,2013-02-23 03:07:00,
2013-02-22 22:12:00,25.3,23.1,29.97,ESE,112,7.3,7.3,91,0.00,CLR,,0.00,WeatherDisplay:10.37,2013-02-23 03:12:00,
2013-02-22 22:17:00,25.5,23.3,29.97,SE,135,6.1,6.1,91,0.00,CLR,,0.00,WeatherDisplay:10.37,2013-02-23 03:17:00,
2013-02-22 22:22:00,25.5,23.3,29.97,SSE,158,7.0,7.0,91,0.00,CLR,,0.00,WeatherDisplay:10.37,2013-02-23 03:22:00,
2013-02-22 22:27:00,25.5,23.3,29.97,SE,135,4.3,6.9,91,0.00,CLR,,0.00,WeatherDisplay:10.37,2013-02-23 03:27:00,
2013-02-22 22:32:00,25.5,23.3,29.96,SSE,158,10.2,10.4,91,0.00,CLR,,0.00,WeatherDisplay:10.37,2013-02-23 03:32:00,
2013-02-22 22:37:00,25.5,23.3,29.96,SSE,158,13.6,13.8,91,0.00,CLR,,0.00,WeatherDisplay:10.37,2013-02-23 03:37:00,
2013-02-22 22:42:00,25.5,23.3,29.96,SE,135,6.7,11.5,91,0.00,CLR,,0.00,WeatherDisplay:10.37,2013-02-23 03:42:00,
2013-02-22 22:47:00,25.3,23.1,29.96,SSE,158,6.1,6.1,91,0.00,CLR,,0.00,WeatherDisplay:10.37,2013-02-23 03:47:00,
2013-02-22 22:52:00,25.5,23.3,29.96,SSE,158,4.9,11.5,91,0.00,CLR,,0.00,WeatherDisplay:10.37,2013-02-23 03:52:00,
2013-02-22 22:57:00,25.5,23.3,29.96,SSE,158,9.0,9.2,91,0.00,CLR,,0.00,WeatherDisplay:10.37,2013-02-23 03:57:00,
2013-02-22 23:02:00,25.5,23.3,29.96,SE,135,7.8,7.8,91,0.00,CLR,,0.00,WeatherDisplay:10.37,2013-02-23 04:02:00,
2013-02-22 23:07:00,25.5,23.3,29.96,SSE,158,9.3,9.3,91,0.00,CLR,,0.00,WeatherDisplay:10.37,2013-02-23 04:07:00,
2013-02-22 23:12:00,25.5,23.3,29.96,SSE,158,11.1,15.0,91,0.00,CLR,,0.00,WeatherDisplay:10.37,2013-02-23 04:12:00,
2013-02-22 23:17:00,25.5,23.3,29.96,SE,135,5.8,11.5,91,0.00,CLR,,0.00,WeatherDisplay:10.37,2013-02-23 04:17:00,
2013-02-22 23:22:00,25.5,23.3,29.96,ESE,112,12.3,12.7,91,0.00,CLR,,0.00,WeatherDisplay:10.37,2013-02-23 04:22:00,
2013-02-22 23:27:00,25.5,23.3,29.96,SE,135,6.1,8.1,91,0.00,CLR,,0.00,WeatherDisplay:10.37,2013-02-23 04:27:00,
2013-02-22 23:32:00,25.5,23.3,29.96,SE,135,7.6,10.4,91,0.00,CLR,,0.00,WeatherDisplay:10.37,2013-02-23 04:32:00,
2013-02-22 23:37:00,25.5,23.3,29.96,SSE,158,6.4,6.9,91,0.00,CLR,,0.00,WeatherDisplay:10.37,2013-02-23 04:37:00,
2013-02-22 23:42:00,25.5,23.3,29.96,SSE,158,5.8,8.1,91,0.00,CLR,,0.00,WeatherDisplay:10.37,2013-02-23 04:42:00,
2013-02-22 23:47:00,25.7,23.4,29.96,SE,135,13.9,13.9,91,0.00,CLR,,0.00,WeatherDisplay:10.37,2013-02-23 04:47:00,
2013-02-22 23:52:00,25.7,23.4,29.96,SSE,158,8.1,8.1,91,0.00,CLR,,0.00,WeatherDisplay:10.37,2013-02-23 04:52:00,
2013-02-22 23:57:00,25.7,23.4,29.96,ESE,112,10.5,10.5,91,0.00,CLR,,0.00,WeatherDisplay:10.37,2013-02-23 04:57:00,